• Join FlightAware (Why Join?)
  • Login
  • US Flag 
07:04PM EDT


 

Airport Tracker/Info


-or-


 

Live Flight TrackerFlight Track Log ✈ AAY817 ✈ 02-May-2012 ✈ KHTS - KPIE

Flight Track Log - Related Links

Times and Time Zones

All times are in EDT time to prevent confusion due to time zone crossing. See the AAY817 flight status page for this flight to view local times or setup timezone preferences in your user account.

Time Position Orientation Groundspeed Altitude Reporting Facility
EDT Latitude Longitude Course Direction KTS MPH feet Rate Location/Type
09:54AM 38.2321 -82.5297 18° North  Level FlightAware Approximate
09:54AM 38.3133 -82.4956 172° South 216 249 3,500  Level Indianapolis Center
09:55AM 38.2592 -82.4858 173° South 224 258 5,100 2,040 Climbing Indianapolis Center
09:56AM 38.1861 -82.4736 171° South 244 281 7,600 2,520 Climbing Indianapolis Center
09:57AM 38.1025 -82.4564 173° South 275 316 10,200 1,920 Climbing Indianapolis Center
09:58AM 38.0147 -82.4419 172° South 318 366 11,500 1,740 Climbing Indianapolis Center
09:59AM 37.9103 -82.4225 172° South 365 420 13,700 2,280 Climbing Indianapolis Center
10:00AM 37.7994 -82.4031 172° South 394 453 16,100 2,340 Climbing Indianapolis Center
10:01AM 37.6844 -82.3814 171° South 413 475 18,400 2,100 Climbing Indianapolis Center
10:02AM 37.5694 -82.3594 172° South 422 486 20,300 1,740 Climbing Indianapolis Center
10:03AM 37.4506 -82.3378 173° South 428 493 21,900 1,680 Climbing Indianapolis Center
10:05AM 37.2617 -82.3072 172° South 449 517 24,500 1,620 Climbing Atlanta Center
10:06AM 37.1258 -82.2842 171° South 449 517 26,000 1,920 Climbing Atlanta Center
10:07AM 37.0006 -82.2586 173° South 454 522 28,400 1,620 Climbing Atlanta Center
10:08AM 36.8792 -82.2406 172° South 454 522 29,300 1,260 Climbing Atlanta Center
10:09AM 36.7558 -82.2200 182° South 454 522 31,000 1,380 Climbing Atlanta Center
10:10AM 36.6350 -82.2253 183° South 440 506 32,100 960 Climbing Atlanta Center
10:11AM 36.5142 -82.2331 182° South 440 506 33,000 780 Climbing Atlanta Center
10:12AM 36.3933 -82.2386 183° South 440 506 33,700 480 Climbing Atlanta Center
10:13AM 36.2706 -82.2464 182° South 440 506 34,000 120 Climbing Atlanta Center
10:14AM 36.1494 -82.2517 183° South 440 506 34,000  Level Atlanta Center
10:15AM 36.0286 -82.2594 182° South 440 506 34,000  Level Atlanta Center
10:16AM 35.9036 -82.2647 183° South 440 506 34,000  Level Atlanta Center
10:17AM 35.7806 -82.2725 184° South 440 506 34,000  Level Atlanta Center
10:18AM 35.6597 -82.2828 183° South 435 501 34,000  Level Atlanta Center
10:19AM 35.5369 -82.2906 183° South 446 513 34,000  Level Atlanta Center
10:20AM 35.4158 -82.2983 183° South 438 504 34,000  Level Atlanta Center
10:21AM 35.2931 -82.3058 182° South 438 504 34,000  Level Atlanta Center
10:22AM 35.1803 -82.3108 181° South 438 504 34,000  Level Atlanta Center
10:23AM 35.0594 -82.3133 183° South 438 504 34,000  Level Atlanta Center
10:24AM 34.9383 -82.3208 182° South 438 504 34,000  Level Atlanta Center
10:25AM 34.8028 -82.3261 183° South 443 510 34,000  Level Atlanta Center
10:26AM 34.6778 -82.3339 182° South 437 503 34,000  Level Atlanta Center
10:27AM 34.5567 -82.3389 183° South 443 510 34,000  Level Atlanta Center
10:28AM 34.4317 -82.3464 182° South 443 510 34,000  Level Atlanta Center
10:29AM 34.3086 -82.3514 183° South 443 510 34,000  Level Atlanta Center
10:30AM 34.1939 -82.3586 183° South 443 510 34,000  Level Atlanta Center
10:31AM 34.0647 -82.3661 183° South 451 519 34,000  Level Atlanta Center
10:32AM 33.9436 -82.3736 182° South 451 519 34,000  Level Atlanta Center
10:33AM 33.8186 -82.3786 183° South 451 519 34,000  Level Atlanta Center
10:34AM 33.6831 -82.3861 182° South 454 522 34,000  Level Atlanta Center
10:35AM 33.5556 -82.3911 184° South 441 507 34,000  Level Atlanta Center
10:36AM 33.4347 -82.4008 182° South 441 507 34,000  Level Atlanta Center
10:37AM 33.3158 -82.4056 183° South 441 507 34,000  Level Atlanta Center
10:38AM 33.1992 -82.4128 183° South 446 513 34,000  Level Atlanta Center
10:39AM 33.0781 -82.4200 182° South 446 513 34,000  Level Atlanta Center
10:40AM 32.9550 -82.4247 183° South 441 507 34,000  Level Atlanta Center
10:42AM 32.7147 -82.4408 182° South 438 504 34,000  Level Jacksonville Center
10:43AM 32.5936 -82.4464 182° South 438 504 34,000  Level Jacksonville Center
10:44AM 32.4706 -82.4519 181° South 438 504 34,000  Level Jacksonville Center
10:45AM 32.3600 -82.4547 183° South 438 504 34,000  Level Jacksonville Center
10:46AM 32.2389 -82.4628 183° South 438 504 34,000  Level Jacksonville Center
10:47AM 32.1158 -82.4706 182° South 443 510 34,000  Level Jacksonville Center
10:48AM 31.9906 -82.4761 182° South 448 516 34,000  Level Jacksonville Center
10:49AM 31.8694 -82.4817 183° South 443 510 34,000  Level Jacksonville Center
10:50AM 31.7461 -82.4894 181° South 443 510 34,000  Level Jacksonville Center
10:51AM 31.6272 -82.4925 160° South 443 510 34,000  Level Jacksonville Center
10:52AM 31.5144 -82.4442 147° Southeast 425 489 34,000  Level Jacksonville Center
10:53AM 31.4117 -82.3667 148° Southeast 425 489 34,000  Level Jacksonville Center
10:54AM 31.3111 -82.2919 147° Southeast 425 489 34,000  Level Jacksonville Center
10:55AM 31.2083 -82.2150 154° Southeast 431 496 34,000  Level Jacksonville Center
10:56AM 31.1017 -82.1550 184° South 431 496 34,000 -60 Level Jacksonville Center
10:57AM 30.9828 -82.1656 186° South 413 475 33,900 -60 Descending Jacksonville Center
10:58AM 30.8617 -82.1811 188° South 423 487 33,900  Level Jacksonville Center
10:59AM 30.7406 -82.2014 187° South 428 493 34,000  Climbing Jacksonville Center
11:00AM 30.6217 -82.2192 184° South 434 499 34,000  Level Jacksonville Center
11:01AM 30.5008 -82.2294 188° South 434 499 34,000  Level Jacksonville Center
11:02AM 30.3797 -82.2497 186° South 439 505 34,000  Level Jacksonville Center
11:03AM 30.2608 -82.2650 186° South 444 511 34,000 -60 Level Jacksonville Center
11:04AM 30.1419 -82.2800 189° South 439 505 33,900 -60 Descending Jacksonville Center
11:05AM 30.0189 -82.3025 186° South 439 505 33,900 -720 Level Jacksonville Center
11:06AM 29.8997 -82.3175 186° South 444 511 32,500 -1,680 Descending Jacksonville Center
11:07AM 29.7831 -82.3325 187° South 439 505 30,600 -2,100 Descending Jacksonville Center
11:08AM 29.6703 -82.3475 182° South 425 489 28,400 -2,100 Descending Jacksonville Center
11:09AM 29.5575 -82.3531 175° South 415 478 26,400 -1,920 Descending Jacksonville Center
11:10AM 29.4406 -82.3417 174° South 400 460 24,600 -1,800 Descending Jacksonville Center
11:11AM 29.3361 -82.3281 174° South 388 447 22,900 -1,680 Descending Jacksonville Center
11:12AM 29.2381 -82.3167 174° South 381 438 21,300 -1,740 Descending Jacksonville Center
11:13AM 29.1442 -82.3053 174° South 362 417 19,500 -1,680 Descending Jacksonville Center
11:14AM 29.0500 -82.2939 175° South 343 395 18,000 -1,380 Descending Jacksonville Center
11:15AM 28.9644 -82.2850 173° South 333 383 16,800 -1,320 Descending Jacksonville Center
11:16AM 28.8850 -82.2736 174° South 328 377 15,400 -1,260 Descending Jacksonville Center
11:18AM 28.6833 -82.2500 190° South 294 338 12,600 -1,200 Descending Tampa TRACON
11:19AM 28.6000 -82.2667 230° Southwest 300 345 11,500 -900 Descending Tampa TRACON
11:20AM 28.5500 -82.3333 259° West 311 358 10,900 -720 Descending Tampa TRACON
11:21AM 28.5333 -82.4333 249° West 317 365 10,300 -720 Descending Tampa TRACON
11:22AM 28.5000 -82.5333 236° Southwest 304 350 9,500 -840 Descending Tampa TRACON
11:23AM 28.4500 -82.6167 240° Southwest 303 349 8,500 -1,080 Descending Tampa TRACON
11:24AM 28.4167 -82.6833 236° Southwest 299 344 7,500 -1,260 Descending Tampa TRACON
11:25AM 28.3667 -82.7667 213° Southwest 280 322 6,200 -1,080 Descending Tampa TRACON
11:26AM 28.3000 -82.8167 164° South 254 292 5,400 -780 Descending Tampa TRACON
11:27AM 28.2500 -82.8000 164° South 218 251 4,700 -840 Descending Tampa TRACON
11:28AM 28.2000 -82.7833 164° South 203 234 3,900 -900 Descending Tampa TRACON
11:29AM 28.1500 -82.7667 139° Southeast 175 201 2,900 -780 Descending Tampa TRACON
11:30AM 28.1167 -82.7333 164° South 171 197 2,400 -600 Descending Tampa TRACON
11:31AM 28.0667 -82.7167 139° Southeast 173 199 1,900 -480 Descending Tampa TRACON
11:32AM 28.0333 -82.6833 156° South 168 193 1,600 -360 Descending Tampa TRACON
11:33AM 28.0000 -82.6667 210° Southwest 168 193 1,200 -480 Descending Tampa TRACON
11:34AM 27.9500 -82.7000 210° Southwest 159 183 700 -540 Descending Tampa TRACON